TimeAKDT,TemperatureF,Dew PointF,Humidity,Sea Level PressureIn,VisibilityMPH,Wind Direction,Wind SpeedMPH,Gust SpeedMPH,PrecipitationIn,Events,Conditions,WindDirDegrees,DateUTC
12:53 AM,39.9,37.9,93,30.04,10.0,Calm,Calm,-,0.01,,Overcast,0,2012-10-06 08:53:00
1:53 AM,39.9,37.9,93,30.05,10.0,Calm,Calm,-,0.01,,Overcast,0,2012-10-06 09:53:00
2:53 AM,39.9,37.9,93,30.04,10.0,NW,3.5,-,0.00,,Overcast,320,2012-10-06 10:53:00
3:53 AM,39.9,37.9,93,30.04,10.0,WNW,3.5,-,N/A,,Overcast,300,2012-10-06 11:53:00
4:53 AM,39.9,37.9,93,30.05,10.0,Calm,Calm,-,0.01,Rain,Light Rain,0,2012-10-06 12:53:00
6:43 AM,39.2,39.2,100,30.06,6.0,Calm,Calm,-,0.05,Rain,Light Rain,0,2012-10-06 14:43:00
6:53 AM,39.9,39.0,97,30.09,5.0,Calm,Calm,-,0.06,Rain,Light Rain,0,2012-10-06 14:53:00
7:53 AM,39.9,39.0,97,30.10,10.0,SE,4.6,-,0.06,Rain,Light Rain,130,2012-10-06 15:53:00
8:25 AM,39.2,39.2,100,30.07,10.0,Calm,Calm,-,0.00,,Overcast,0,2012-10-06 16:25:00
8:53 AM,39.9,39.0,97,30.12,10.0,Calm,Calm,-,0.00,,Overcast,0,2012-10-06 16:53:00
9:53 AM,42.1,39.0,89,30.14,10.0,SSW,4.6,-,0.00,Rain,Light Rain,200,2012-10-06 17:53:00
10:53 AM,42.1,39.0,89,30.16,10.0,SSW,4.6,-,0.01,Rain,Light Rain,200,2012-10-06 18:53:00
11:53 AM,42.1,39.0,89,30.18,10.0,South,6.9,-,0.01,Rain,Light Rain,190,2012-10-06 19:53:00
12:53 PM,43.0,39.9,89,30.21,10.0,SSW,5.8,-,0.01,,Overcast,210,2012-10-06 20:53:00
1:53 PM,44.1,39.9,85,30.22,10.0,South,6.9,-,0.00,,Overcast,190,2012-10-06 21:53:00
2:53 PM,46.0,39.9,79,30.22,10.0,SSW,8.1,-,N/A,,Scattered Clouds,210,2012-10-06 22:53:00
3:39 PM,48.2,37.4,66,30.19,10.0,SSW,6.9,-,N/A,,Mostly Cloudy,210,2012-10-06 23:39:00
3:53 PM,48.0,37.9,68,30.22,10.0,SW,3.5,-,N/A,,Overcast,230,2012-10-06 23:53:00
4:06 PM,48.2,37.4,66,30.19,10.0,SW,6.9,-,N/A,,Overcast,220,2012-10-07 00:06:00
4:53 PM,46.9,37.0,68,30.22,10.0,SW,3.5,-,N/A,,Clear,230,2012-10-07 00:53:00
5:53 PM,46.0,37.9,73,30.23,10.0,Calm,Calm,-,N/A,,Mostly Cloudy,0,2012-10-07 01:53:00
6:53 PM,43.0,37.9,82,30.22,10.0,Calm,Calm,-,N/A,,Partly Cloudy,0,2012-10-07 02:53:00
7:53 PM,41.0,37.9,89,30.23,10.0,Calm,Calm,-,N/A,,Clear,0,2012-10-07 03:53:00
8:53 PM,39.9,37.0,89,30.22,10.0,ENE,5.8,-,N/A,,Clear,70,2012-10-07 04:53:00
9:53 PM,41.0,37.9,89,30.24,10.0,Calm,Calm,-,N/A,,Overcast,0,2012-10-07 05:53:00
10:53 PM,41.0,37.9,89,30.27,10.0,East,3.5,-,N/A,,Overcast,80,2012-10-07 06:53:00
11:53 PM,39.0,37.9,96,30.28,10.0,Calm,Calm,-,0.00,,Overcast,0,2012-10-07 07:53:00